createdAt,value
2018-07-08T00:03:51.781Z,1.60
2018-07-08T00:13:54.810Z,1.50
2018-07-08T00:23:57.874Z,2.20
2018-07-08T00:34:00.948Z,1.82
2018-07-08T00:44:03.989Z,1.80
2018-07-08T00:54:07.174Z,1.95
2018-07-08T01:04:10.230Z,1.80
2018-07-08T01:14:13.419Z,1.80
2018-07-08T01:24:16.462Z,2.00
2018-07-08T01:34:19.494Z,1.80
2018-07-08T01:44:22.620Z,1.65
2018-07-08T01:54:25.650Z,1.92
2018-07-08T02:04:28.670Z,1.80
2018-07-08T02:14:31.789Z,1.85
2018-07-08T02:24:34.844Z,2.45
2018-07-08T02:34:37.882Z,2.05
2018-07-08T02:44:40.944Z,2.33
2018-07-08T02:54:44.999Z,2.33
2018-07-08T03:04:48.050Z,2.10
2018-07-08T03:14:51.117Z,1.95
2018-07-08T03:24:54.215Z,1.87
2018-07-08T03:34:57.067Z,2.27
2018-07-08T03:45:00.105Z,1.82
2018-07-08T03:55:03.219Z,2.42
2018-07-08T04:05:06.274Z,2.37
2018-07-08T04:15:09.383Z,3.98
2018-07-08T04:25:12.351Z,2.35
2018-07-08T04:35:15.359Z,3.00
2018-07-08T04:45:18.358Z,2.95
2018-07-08T04:55:21.383Z,2.77
2018-07-08T05:05:24.422Z,2.75
2018-07-08T05:15:27.469Z,2.95
2018-07-08T05:25:30.510Z,2.87
2018-07-08T05:35:33.627Z,2.70
2018-07-08T05:45:36.640Z,2.75
2018-07-08T05:55:39.661Z,4.15
2018-07-08T06:05:42.727Z,3.20
2018-07-08T06:15:45.798Z,3.67
2018-07-08T06:25:48.848Z,4.33
2018-07-08T06:35:51.907Z,4.65
2018-07-08T06:45:54.960Z,4.28
2018-07-08T06:55:57.991Z,4.35
2018-07-08T07:06:01.147Z,4.92
2018-07-08T07:16:04.410Z,5.15
2018-07-08T07:26:07.457Z,4.33
2018-07-08T07:36:10.570Z,4.30
2018-07-08T07:46:13.731Z,4.92
2018-07-08T07:56:16.746Z,5.00
2018-07-08T08:06:19.774Z,4.50
2018-07-08T08:16:22.838Z,5.15
2018-07-08T08:26:26.359Z,5.03
2018-07-08T08:36:29.478Z,5.17
2018-07-08T08:46:32.539Z,5.17
2018-07-08T08:56:35.582Z,6.15
2018-07-08T09:06:38.841Z,5.97
2018-07-08T09:16:42.079Z,5.55
2018-07-08T09:26:45.116Z,6.33
2018-07-08T09:36:48.180Z,6.40
2018-07-08T09:46:51.255Z,6.70
2018-07-08T09:56:54.109Z,6.40
2018-07-08T10:06:57.140Z,6.70
2018-07-08T10:17:00.294Z,6.72
2018-07-08T10:27:27.340Z,7.80
2018-07-08T10:37:30.382Z,7.10
2018-07-08T10:47:33.414Z,7.60
2018-07-08T10:57:36.466Z,6.97
2018-07-08T11:07:39.626Z,6.47
2018-07-08T11:17:42.650Z,5.90
2018-07-08T11:27:45.720Z,5.78
2018-07-08T11:37:49.834Z,5.70
2018-07-08T11:47:52.959Z,5.75
2018-07-08T11:57:56.039Z,5.70
2018-07-08T12:08:01.125Z,5.20
2018-07-08T12:18:04.167Z,5.40
2018-07-08T12:28:07.269Z,5.12
2018-07-08T12:38:10.290Z,4.80
2018-07-08T12:48:13.429Z,5.00
2018-07-08T12:58:16.466Z,4.67
2018-07-08T13:08:19.518Z,4.75
2018-07-08T13:18:22.559Z,4.47
2018-07-08T13:28:25.649Z,4.42
2018-07-08T13:38:28.683Z,4.72
2018-07-08T13:48:31.698Z,4.30
2018-07-08T13:58:34.761Z,4.30
2018-07-08T14:08:37.813Z,4.65
2018-07-08T14:18:40.838Z,4.15
2018-07-08T14:28:43.699Z,3.83
2018-07-08T14:38:46.878Z,4.37
2018-07-08T14:48:49.906Z,4.12
2018-07-08T14:58:53.071Z,4.30
2018-07-08T15:08:56.140Z,3.77
2018-07-08T15:18:59.203Z,4.00
2018-07-08T15:29:02.243Z,4.60
2018-07-08T15:39:07.038Z,4.78
2018-07-08T15:49:10.057Z,4.53
2018-07-08T15:59:13.152Z,3.90
2018-07-08T16:09:16.211Z,4.25
2018-07-08T16:19:19.276Z,3.67
2018-07-08T16:29:22.315Z,4.15
2018-07-08T16:39:25.387Z,4.00
2018-07-08T16:49:28.518Z,3.72
2018-07-08T16:59:31.542Z,3.87
2018-07-08T17:09:34.550Z,4.10
2018-07-08T17:19:37.537Z,3.83
2018-07-08T17:29:40.629Z,3.77
2018-07-08T17:39:43.761Z,4.20
2018-07-08T17:49:46.859Z,3.50
2018-07-08T17:59:50.870Z,3.67
2018-07-08T18:09:53.920Z,3.20
2018-07-08T18:19:56.976Z,3.22
2018-07-08T18:29:59.990Z,3.72
2018-07-08T18:40:03.066Z,2.95
2018-07-08T18:50:06.138Z,2.98
2018-07-08T19:00:09.169Z,3.10
2018-07-08T19:10:12.259Z,3.20
2018-07-08T19:20:15.446Z,3.00
2018-07-08T19:30:18.498Z,3.70
2018-07-08T19:40:21.590Z,3.10
2018-07-08T19:50:24.640Z,3.00
2018-07-08T20:00:27.694Z,4.30
2018-07-08T20:10:30.778Z,3.12
2018-07-08T20:20:35.957Z,3.40
2018-07-08T20:30:39.011Z,3.52
2018-07-08T20:40:47.164Z,3.27
2018-07-08T20:50:50.575Z,3.50
2018-07-08T21:00:53.682Z,3.40
2018-07-08T21:10:57.627Z,3.00
2018-07-08T21:21:00.659Z,2.90
2018-07-08T21:31:03.686Z,3.40
2018-07-08T21:41:07.770Z,2.83
2018-07-08T21:51:10.774Z,3.08
2018-07-08T22:01:16.630Z,2.83
2018-07-08T22:11:19.692Z,3.05
2018-07-08T22:21:22.707Z,3.05
2018-07-08T22:31:25.747Z,3.00
2018-07-08T22:41:28.826Z,3.00
2018-07-08T22:51:32.015Z,3.05
2018-07-08T23:01:40.621Z,2.80
2018-07-08T23:11:43.650Z,3.30
2018-07-08T23:21:46.686Z,3.35
2018-07-08T23:31:49.793Z,4.15
2018-07-08T23:41:58.397Z,3.98
2018-07-08T23:52:01.260Z,3.72
